createdAt,value
2019-02-10T00:00:36.828Z,18.96
2019-02-10T00:03:04.022Z,18.95
2019-02-10T00:05:31.241Z,18.95
2019-02-10T00:07:58.468Z,18.95
2019-02-10T00:10:25.742Z,18.93
2019-02-10T00:13:27.275Z,18.93
2019-02-10T00:15:54.593Z,18.97
2019-02-10T00:18:21.851Z,18.97
2019-02-10T00:20:49.069Z,18.96
2019-02-10T00:23:16.247Z,18.96
2019-02-10T00:25:43.467Z,18.95
2019-02-10T00:28:10.662Z,18.93
2019-02-10T00:30:37.857Z,18.95
2019-02-10T00:33:05.139Z,18.96
2019-02-10T00:35:32.316Z,18.93
2019-02-10T00:37:59.545Z,18.95
2019-02-10T00:40:26.791Z,18.96
2019-02-10T00:42:53.986Z,18.96
2019-02-10T00:45:21.257Z,18.97
2019-02-10T00:47:48.435Z,18.96
2019-02-10T00:50:15.656Z,18.96
2019-02-10T00:52:42.835Z,18.97
2019-02-10T00:55:10.079Z,18.99
2019-02-10T00:57:37.246Z,18.98
2019-02-10T01:00:04.631Z,18.98
2019-02-10T01:02:31.770Z,19.01
2019-02-10T01:04:58.948Z,19.01
2019-02-10T01:07:26.114Z,19.01
2019-02-10T01:09:53.303Z,19.01
2019-02-10T01:12:20.619Z,19.01
2019-02-10T01:14:47.842Z,18.98
2019-02-10T01:17:15.080Z,19.00
2019-02-10T01:19:42.299Z,18.99
2019-02-10T01:22:09.468Z,18.99
2019-02-10T01:24:36.693Z,19.02
2019-02-10T01:27:04.231Z,19.01
2019-02-10T01:29:31.427Z,19.00
2019-02-10T01:31:58.591Z,19.01
2019-02-10T01:34:25.806Z,19.00
2019-02-10T01:36:52.985Z,19.00
2019-02-10T01:39:24.193Z,18.99
2019-02-10T01:41:51.383Z,18.98
2019-02-10T01:44:18.561Z,18.98
2019-02-10T01:46:45.738Z,18.98
2019-02-10T01:49:12.976Z,18.98
2019-02-10T01:51:40.130Z,18.99
2019-02-10T01:54:07.354Z,19.01
2019-02-10T01:56:34.554Z,18.99
2019-02-10T01:59:01.739Z,18.98
2019-02-10T02:01:28.962Z,19.00
2019-02-10T02:03:56.145Z,19.03
2019-02-10T02:06:23.403Z,19.01
2019-02-10T02:08:50.573Z,18.99
2019-02-10T02:11:17.770Z,19.00
2019-02-10T02:13:44.962Z,18.97
2019-02-10T02:16:12.187Z,18.97
2019-02-10T02:18:39.414Z,18.99
2019-02-10T02:21:06.554Z,18.99
2019-02-10T02:23:33.806Z,18.97
2019-02-10T02:26:01.007Z,19.01
2019-02-10T02:28:28.180Z,19.01
2019-02-10T02:30:55.367Z,19.02
2019-02-10T02:33:22.571Z,19.01
2019-02-10T02:35:49.786Z,19.03
2019-02-10T02:38:16.967Z,19.03
2019-02-10T02:40:44.189Z,19.03
2019-02-10T02:43:11.391Z,19.02
2019-02-10T02:45:38.615Z,19.01
2019-02-10T02:48:05.810Z,19.03
2019-02-10T02:50:33.045Z,19.01
2019-02-10T02:53:00.267Z,19.01
2019-02-10T02:55:27.444Z,19.00
2019-02-10T02:57:54.644Z,19.00
2019-02-10T03:00:21.823Z,18.99
2019-02-10T03:02:49.142Z,18.99
2019-02-10T03:05:16.411Z,19.02
2019-02-10T03:07:43.614Z,19.03
2019-02-10T03:10:11.789Z,19.01
2019-02-10T03:12:38.919Z,19.00
2019-02-10T03:15:06.279Z,19.01
2019-02-10T03:17:33.527Z,19.01
2019-02-10T03:20:00.727Z,19.01
2019-02-10T03:22:27.951Z,19.01
2019-02-10T03:24:55.218Z,19.00
2019-02-10T03:27:22.417Z,19.02
2019-02-10T03:29:49.581Z,19.00
2019-02-10T03:32:16.821Z,19.02
2019-02-10T03:34:43.977Z,19.03
2019-02-10T03:37:11.225Z,19.04
2019-02-10T03:39:38.432Z,19.04
2019-02-10T03:42:05.634Z,19.04
2019-02-10T03:44:32.857Z,19.03
2019-02-10T03:47:00.082Z,19.04
2019-02-10T03:49:27.275Z,19.04
2019-02-10T03:51:54.455Z,19.03
2019-02-10T03:54:21.647Z,19.04
2019-02-10T03:56:48.871Z,19.03
2019-02-10T03:59:16.069Z,19.04
2019-02-10T04:01:43.341Z,19.05
2019-02-10T04:04:10.502Z,19.04
2019-02-10T04:06:37.709Z,19.02
2019-02-10T04:09:05.300Z,19.01
2019-02-10T04:11:32.484Z,19.01
2019-02-10T04:13:59.660Z,19.01
2019-02-10T04:16:26.854Z,18.98
2019-02-10T04:18:54.040Z,18.97
2019-02-10T04:21:21.237Z,18.98
2019-02-10T04:23:48.423Z,18.97
2019-02-10T04:26:15.637Z,19.01
2019-02-10T04:28:42.878Z,19.08
2019-02-10T04:31:10.051Z,19.13
2019-02-10T04:33:37.251Z,19.19
2019-02-10T04:36:04.518Z,19.24
2019-02-10T04:38:31.714Z,19.26
2019-02-10T04:40:58.901Z,19.29
2019-02-10T04:43:26.078Z,19.31
2019-02-10T04:45:53.328Z,19.31
2019-02-10T04:48:20.669Z,19.30
2019-02-10T04:50:47.881Z,19.32
2019-02-10T04:53:15.075Z,19.36
2019-02-10T04:55:42.294Z,19.42
2019-02-10T04:58:09.521Z,19.44
2019-02-10T05:00:36.850Z,19.46
2019-02-10T05:03:04.048Z,19.46
2019-02-10T05:05:31.296Z,19.51
2019-02-10T05:07:58.624Z,19.53
2019-02-10T05:10:25.810Z,19.58
2019-02-10T05:12:52.982Z,19.61
2019-02-10T05:15:20.206Z,19.66
2019-02-10T05:17:47.409Z,19.68
2019-02-10T05:20:14.572Z,19.71
2019-02-10T05:22:41.790Z,19.75
2019-02-10T05:25:08.978Z,19.75
2019-02-10T05:27:36.172Z,19.76
2019-02-10T05:30:03.395Z,19.77
2019-02-10T05:32:30.710Z,19.81
2019-02-10T05:34:57.902Z,19.82
2019-02-10T05:37:25.153Z,19.86
2019-02-10T05:39:52.393Z,19.86
2019-02-10T05:42:19.613Z,19.89
2019-02-10T05:44:46.809Z,19.90
2019-02-10T05:47:13.970Z,19.91
2019-02-10T05:49:41.163Z,19.90
2019-02-10T05:52:08.372Z,19.89
2019-02-10T05:54:35.622Z,19.91
2019-02-10T05:57:02.785Z,19.93
2019-02-10T05:59:29.942Z,19.95
2019-02-10T06:02:02.529Z,19.94
2019-02-10T06:04:31.092Z,19.93
2019-02-10T06:07:00.566Z,19.95
2019-02-10T06:09:27.791Z,19.94
2019-02-10T06:11:55.019Z,19.95
2019-02-10T06:14:22.220Z,19.95
2019-02-10T06:16:49.413Z,19.95
2019-02-10T06:19:16.559Z,19.94
2019-02-10T06:21:43.817Z,19.94
2019-02-10T06:24:10.990Z,19.92
2019-02-10T06:26:38.195Z,19.91
2019-02-10T06:29:05.430Z,19.93
2019-02-10T06:31:32.746Z,19.94
2019-02-10T06:33:59.972Z,19.94
2019-02-10T06:36:27.172Z,19.97
2019-02-10T06:38:54.438Z,19.96
2019-02-10T06:41:21.630Z,19.94
2019-02-10T06:43:48.842Z,19.95
2019-02-10T06:46:16.062Z,19.95
2019-02-10T06:48:43.391Z,19.97
2019-02-10T06:51:10.574Z,19.97
2019-02-10T06:53:37.842Z,19.97
2019-02-10T06:56:05.058Z,19.93
2019-02-10T06:58:32.271Z,19.94
2019-02-10T07:01:22.095Z,19.97
2019-02-10T07:04:07.505Z,19.96
2019-02-10T07:06:34.813Z,19.96
2019-02-10T07:09:01.970Z,19.98
2019-02-10T07:11:29.159Z,20.00
2019-02-10T07:14:00.749Z,19.97
2019-02-10T07:16:46.799Z,20.00
2019-02-10T07:19:50.780Z,20.01
2019-02-10T07:22:55.879Z,19.99
2019-02-10T07:25:48.535Z,20.01
2019-02-10T07:29:02.858Z,20.03
2019-02-10T07:31:38.847Z,20.02
2019-02-10T07:34:48.657Z,20.02
2019-02-10T07:38:06.808Z,20.04
2019-02-10T07:41:15.880Z,20.06
2019-02-10T07:44:20.543Z,20.04
2019-02-10T07:47:03.521Z,20.04
2019-02-10T07:50:13.386Z,20.05
2019-02-10T07:53:15.105Z,20.06
2019-02-10T07:56:18.036Z,20.06
2019-02-10T07:58:58.156Z,20.08
2019-02-10T08:01:39.026Z,20.06
2019-02-10T08:04:38.769Z,20.05
2019-02-10T08:07:32.800Z,20.06
2019-02-10T08:10:12.573Z,20.07
2019-02-10T08:13:30.222Z,20.08
2019-02-10T08:16:19.812Z,20.08
2019-02-10T08:19:34.952Z,20.08
2019-02-10T08:22:44.065Z,20.06
2019-02-10T08:25:52.233Z,20.08
2019-02-10T08:28:42.086Z,20.07
2019-02-10T08:31:36.466Z,20.10
2019-02-10T08:34:48.539Z,20.10
2019-02-10T08:37:37.666Z,20.06
2019-02-10T08:40:51.558Z,20.08
2019-02-10T08:43:52.562Z,20.07
2019-02-10T08:46:56.871Z,20.08
2019-02-10T08:50:04.658Z,20.10
2019-02-10T08:52:51.862Z,20.10
2019-02-10T08:55:17.995Z,20.12
2019-02-10T08:57:45.162Z,20.14
2019-02-10T09:00:12.386Z,20.12
2019-02-10T09:02:39.629Z,20.10
2019-02-10T09:05:06.848Z,20.10
2019-02-10T09:07:34.034Z,20.12
2019-02-10T09:10:01.254Z,20.14
2019-02-10T09:12:28.470Z,20.16
2019-02-10T09:14:55.702Z,20.16
2019-02-10T09:17:22.914Z,20.18
2019-02-10T09:19:50.099Z,20.17
2019-02-10T09:22:17.415Z,20.17
2019-02-10T09:24:44.623Z,20.17
2019-02-10T09:27:11.838Z,20.15
2019-02-10T09:29:39.096Z,20.13
2019-02-10T09:32:06.286Z,20.12
2019-02-10T09:34:33.479Z,20.12
2019-02-10T09:37:00.730Z,20.13
2019-02-10T09:39:27.894Z,20.16
2019-02-10T09:41:55.113Z,20.18
2019-02-10T09:44:22.436Z,20.18
2019-02-10T09:46:49.630Z,20.18
2019-02-10T09:49:16.778Z,20.18
2019-02-10T09:51:43.992Z,20.19
2019-02-10T09:54:11.204Z,20.18
2019-02-10T09:56:38.396Z,20.18
2019-02-10T09:59:05.643Z,20.18
2019-02-10T10:01:32.847Z,20.18
2019-02-10T10:04:00.086Z,20.19
2019-02-10T10:06:27.311Z,20.20
2019-02-10T10:08:54.506Z,20.18
2019-02-10T10:11:21.671Z,20.20
2019-02-10T10:13:48.865Z,20.21
2019-02-10T10:16:16.131Z,20.20
2019-02-10T10:18:43.285Z,20.21
2019-02-10T10:21:10.511Z,20.20
2019-02-10T10:23:37.699Z,20.18
2019-02-10T10:26:04.906Z,20.19
2019-02-10T10:28:32.115Z,20.20
2019-02-10T10:30:59.364Z,20.21
2019-02-10T10:33:26.602Z,20.21
2019-02-10T10:35:53.805Z,20.22
2019-02-10T10:38:21.043Z,20.22
2019-02-10T10:40:48.359Z,20.19
2019-02-10T10:43:15.574Z,20.19
2019-02-10T10:45:42.767Z,20.20
2019-02-10T10:48:09.980Z,20.22
2019-02-10T10:50:37.173Z,20.19
2019-02-10T10:53:04.370Z,20.21
2019-02-10T10:55:31.570Z,20.22
2019-02-10T10:57:58.919Z,20.22
2019-02-10T11:00:26.230Z,20.23
2019-02-10T11:02:53.434Z,20.23
2019-02-10T11:05:20.671Z,20.21
2019-02-10T11:07:47.860Z,20.20
2019-02-10T11:10:15.003Z,20.18
2019-02-10T11:12:42.219Z,20.18
2019-02-10T11:15:09.795Z,20.21
2019-02-10T11:17:36.973Z,20.22
2019-02-10T11:20:04.632Z,20.23
2019-02-10T11:22:31.884Z,20.21
2019-02-10T11:24:59.173Z,20.20
2019-02-10T11:27:26.337Z,20.23
2019-02-10T11:29:53.548Z,20.25
2019-02-10T11:32:20.745Z,20.25
2019-02-10T11:34:47.945Z,20.25
2019-02-10T11:37:15.175Z,20.28
2019-02-10T11:39:43.952Z,20.28
2019-02-10T11:42:11.422Z,20.29
2019-02-10T11:44:38.636Z,20.26
2019-02-10T11:47:05.869Z,20.26
2019-02-10T11:49:33.072Z,20.24
2019-02-10T11:52:00.298Z,20.25
2019-02-10T11:54:27.482Z,20.26
2019-02-10T11:56:54.691Z,20.27
2019-02-10T11:59:21.889Z,20.29
2019-02-10T12:01:49.128Z,20.26
2019-02-10T12:04:16.356Z,20.25
2019-02-10T12:06:43.575Z,20.23
2019-02-10T12:09:10.771Z,20.25
2019-02-10T12:11:38.013Z,20.23
2019-02-10T12:14:05.198Z,20.27
2019-02-10T12:16:32.517Z,20.29
2019-02-10T12:18:59.925Z,20.30
2019-02-10T12:21:27.071Z,20.29
2019-02-10T12:23:54.291Z,20.30
2019-02-10T12:26:21.531Z,20.30
2019-02-10T12:28:48.705Z,20.30
2019-02-10T12:31:15.935Z,20.28
2019-02-10T12:33:43.226Z,20.30
2019-02-10T12:36:10.490Z,20.32
2019-02-10T12:38:37.690Z,20.31
2019-02-10T12:41:05.061Z,20.31
2019-02-10T12:43:32.361Z,20.30
2019-02-10T12:45:59.678Z,20.28
2019-02-10T12:48:28.433Z,20.27
2019-02-10T12:50:55.864Z,20.25
2019-02-10T12:53:23.252Z,20.22
2019-02-10T12:55:50.683Z,20.20
2019-02-10T12:58:18.105Z,20.20
2019-02-10T13:00:45.339Z,20.22
2019-02-10T13:03:12.622Z,20.22
2019-02-10T13:05:39.834Z,20.20
2019-02-10T13:08:07.113Z,20.20
2019-02-10T13:10:34.395Z,20.20
2019-02-10T13:13:01.581Z,20.18
2019-02-10T13:15:29.154Z,20.16
2019-02-10T13:17:56.524Z,20.16
2019-02-10T13:20:23.742Z,20.10
2019-02-10T13:22:50.901Z,20.09
2019-02-10T13:25:18.147Z,20.10
2019-02-10T13:27:45.373Z,20.11
2019-02-10T13:30:12.930Z,20.12
2019-02-10T13:32:40.127Z,20.10
2019-02-10T13:35:07.501Z,20.09
2019-02-10T13:37:34.950Z,20.09
2019-02-10T13:40:02.475Z,20.12
2019-02-10T13:42:29.803Z,20.17
2019-02-10T13:44:57.282Z,20.16
2019-02-10T13:47:24.502Z,20.18
2019-02-10T13:49:51.821Z,20.23
2019-02-10T13:52:19.248Z,20.21
2019-02-10T13:54:46.521Z,20.23
2019-02-10T13:57:13.898Z,20.24
2019-02-10T13:59:41.171Z,20.27
2019-02-10T14:02:11.772Z,20.29
2019-02-10T14:04:40.273Z,20.30
2019-02-10T14:07:07.635Z,20.31
2019-02-10T14:09:34.881Z,20.31
2019-02-10T14:12:02.274Z,20.35
2019-02-10T14:14:29.694Z,20.39
2019-02-10T14:16:57.030Z,20.41
2019-02-10T14:19:24.367Z,20.43
2019-02-10T14:21:51.717Z,20.43
2019-02-10T14:24:19.083Z,20.43
2019-02-10T14:26:46.357Z,20.43
2019-02-10T14:29:13.612Z,20.44
2019-02-10T14:31:40.967Z,20.43
2019-02-10T14:34:08.427Z,20.38
2019-02-10T14:36:35.843Z,20.40
2019-02-10T14:39:04.699Z,20.40
2019-02-10T14:41:32.227Z,20.38
2019-02-10T14:43:59.634Z,20.42
2019-02-10T14:46:26.978Z,20.42
2019-02-10T14:48:54.404Z,20.42
2019-02-10T14:51:21.922Z,20.42
2019-02-10T14:53:49.395Z,20.41
2019-02-10T14:56:16.842Z,20.39
2019-02-10T14:58:45.000Z,20.40
2019-02-10T15:01:12.462Z,20.38
2019-02-10T15:03:40.225Z,20.33
2019-02-10T15:06:07.665Z,20.34
2019-02-10T15:08:35.018Z,20.35
2019-02-10T15:11:02.455Z,20.37
2019-02-10T15:13:29.949Z,20.36
2019-02-10T15:15:57.407Z,20.34
2019-02-10T15:18:27.730Z,20.33
2019-02-10T15:20:55.153Z,20.33
2019-02-10T15:23:22.544Z,20.34
2019-02-10T15:25:49.996Z,20.30
2019-02-10T15:28:17.403Z,20.30
2019-02-10T15:30:44.889Z,20.30
2019-02-10T15:33:12.481Z,20.33
2019-02-10T15:35:42.330Z,20.32
2019-02-10T15:38:09.736Z,20.30
2019-02-10T15:40:37.202Z,20.28
2019-02-10T15:43:05.809Z,20.28
2019-02-10T15:45:33.225Z,20.26
2019-02-10T15:48:00.661Z,20.23
2019-02-10T15:50:28.142Z,20.22
2019-02-10T15:52:55.600Z,20.20
2019-02-10T15:55:22.963Z,20.19
2019-02-10T15:57:50.670Z,20.19
2019-02-10T16:00:21.458Z,20.20
2019-02-10T16:02:49.008Z,20.20
2019-02-10T16:05:16.384Z,20.17
2019-02-10T16:07:43.804Z,20.16
2019-02-10T16:10:11.452Z,20.13
2019-02-10T16:12:38.855Z,20.10
2019-02-10T16:15:10.910Z,20.10
2019-02-10T16:17:38.328Z,20.13
2019-02-10T16:20:07.488Z,20.14
2019-02-10T16:22:34.942Z,20.13
2019-02-10T16:25:04.358Z,20.13
2019-02-10T16:27:31.802Z,20.12
2019-02-10T16:29:59.274Z,20.11
2019-02-10T16:32:26.787Z,20.13
2019-02-10T16:34:54.183Z,20.12
2019-02-10T16:37:21.629Z,20.14
2019-02-10T16:39:49.032Z,20.13
2019-02-10T16:42:16.682Z,20.13
2019-02-10T16:44:44.143Z,20.13
2019-02-10T16:47:11.630Z,20.12
2019-02-10T16:49:39.056Z,20.12
2019-02-10T16:52:06.596Z,20.13
2019-02-10T16:54:34.153Z,20.13
2019-02-10T16:57:01.601Z,20.13
2019-02-10T16:59:29.096Z,20.12
2019-02-10T17:01:56.537Z,20.13
2019-02-10T17:04:23.924Z,20.14
2019-02-10T17:06:51.383Z,20.14
2019-02-10T17:09:18.837Z,20.14
2019-02-10T17:11:46.291Z,20.12
2019-02-10T17:14:13.719Z,20.11
2019-02-10T17:16:41.127Z,20.09
2019-02-10T17:19:08.661Z,20.09
2019-02-10T17:21:36.088Z,20.10
2019-02-10T17:24:03.497Z,20.09
2019-02-10T17:26:30.969Z,20.10
2019-02-10T17:28:58.351Z,20.13
2019-02-10T17:31:25.782Z,20.09
2019-02-10T17:33:53.344Z,20.09
2019-02-10T17:36:20.801Z,20.11
2019-02-10T17:38:48.172Z,20.07
2019-02-10T17:41:22.963Z,20.09
2019-02-10T17:43:48.148Z,20.10
2019-02-10T17:46:15.426Z,20.08
2019-02-10T17:48:42.856Z,20.08
2019-02-10T17:51:10.898Z,20.09
2019-02-10T17:53:38.346Z,20.07
2019-02-10T17:56:05.775Z,20.05
2019-02-10T17:58:33.165Z,20.04
2019-02-10T18:01:00.717Z,20.05
2019-02-10T18:03:28.167Z,20.07
2019-02-10T18:05:55.605Z,20.08
2019-02-10T18:08:23.153Z,20.07
2019-02-10T18:10:52.877Z,20.06
2019-02-10T18:13:20.334Z,20.09
2019-02-10T18:16:16.309Z,20.09
2019-02-10T18:19:10.817Z,20.09
2019-02-10T18:22:06.765Z,20.08
2019-02-10T18:24:44.696Z,20.04
2019-02-10T18:27:37.150Z,20.00
2019-02-10T18:30:31.698Z,19.95
2019-02-10T18:33:17.479Z,19.97
2019-02-10T18:36:03.080Z,19.98
2019-02-10T18:38:38.690Z,19.92
2019-02-10T18:41:24.565Z,19.91
2019-02-10T18:44:10.414Z,19.94
2019-02-10T18:46:54.039Z,19.91
2019-02-10T18:49:32.662Z,19.86
2019-02-10T18:52:28.813Z,19.82
2019-02-10T18:55:19.408Z,19.81
2019-02-10T18:58:06.363Z,19.81
2019-02-10T19:00:53.317Z,19.78
2019-02-10T19:03:38.927Z,19.78
2019-02-10T19:06:28.783Z,19.73
2019-02-10T19:09:15.512Z,19.70
2019-02-10T19:12:07.911Z,19.64
2019-02-10T19:14:51.487Z,19.57
2019-02-10T19:17:28.127Z,19.56
2019-02-10T19:20:16.164Z,19.61
2019-02-10T19:23:01.532Z,19.61
2019-02-10T19:25:39.575Z,19.57
2019-02-10T19:28:26.318Z,19.51
2019-02-10T19:31:13.196Z,19.49
2019-02-10T19:33:58.889Z,19.44
2019-02-10T19:36:44.675Z,19.42
2019-02-10T19:39:31.661Z,19.43
2019-02-10T19:42:17.297Z,19.41
2019-02-10T19:45:11.211Z,19.42
2019-02-10T19:48:00.903Z,19.38
2019-02-10T19:50:52.493Z,19.38
2019-02-10T19:53:28.928Z,19.39
2019-02-10T19:56:23.995Z,19.38
2019-02-10T19:59:12.334Z,19.31
2019-02-10T20:02:11.210Z,19.27
2019-02-10T20:05:04.352Z,19.18
2019-02-10T20:07:51.332Z,19.18
2019-02-10T20:10:37.346Z,19.18
2019-02-10T20:13:20.674Z,19.17
2019-02-10T20:15:54.779Z,19.15
2019-02-10T20:18:39.995Z,19.12
2019-02-10T20:21:21.295Z,19.08
2019-02-10T20:23:57.549Z,18.98
2019-02-10T20:26:44.855Z,19.01
2019-02-10T20:29:31.892Z,19.01
2019-02-10T20:32:24.430Z,18.95
2019-02-10T20:35:06.718Z,18.88
2019-02-10T20:37:56.365Z,18.81
2019-02-10T20:40:39.923Z,18.84
2019-02-10T20:43:29.679Z,18.84
2019-02-10T20:46:16.709Z,18.82
2019-02-10T20:49:02.485Z,18.81
2019-02-10T20:51:52.275Z,18.76
2019-02-10T20:54:35.588Z,18.74
2019-02-10T20:57:25.708Z,18.77
2019-02-10T21:00:02.776Z,18.77
2019-02-10T21:03:01.627Z,18.77
2019-02-10T21:06:02.145Z,18.76
2019-02-10T21:08:35.935Z,18.80
2019-02-10T21:11:25.867Z,18.78
2019-02-10T21:14:18.621Z,18.78
2019-02-10T21:17:04.567Z,18.74
2019-02-10T21:19:54.464Z,18.78
2019-02-10T21:22:47.023Z,18.81
2019-02-10T21:25:33.988Z,18.80
2019-02-10T21:28:10.293Z,18.80
2019-02-10T21:30:55.974Z,18.82
2019-02-10T21:33:54.922Z,18.81
2019-02-10T21:36:30.590Z,18.81
2019-02-10T21:39:08.685Z,18.85
2019-02-10T21:41:47.157Z,18.87
2019-02-10T21:44:49.231Z,18.91
2019-02-10T21:47:22.365Z,18.93
2019-02-10T21:49:49.595Z,18.93
2019-02-10T21:52:16.939Z,18.94
2019-02-10T21:54:44.165Z,18.94
2019-02-10T21:57:12.655Z,18.90
2019-02-10T21:59:39.989Z,18.91
2019-02-10T22:02:08.130Z,18.96
2019-02-10T22:04:40.135Z,18.99
2019-02-10T22:07:07.846Z,18.95
2019-02-10T22:09:36.645Z,18.98
2019-02-10T22:12:04.676Z,18.97
2019-02-10T22:14:32.043Z,18.97
2019-02-10T22:16:59.532Z,18.97
2019-02-10T22:19:26.863Z,18.93
2019-02-10T22:21:54.108Z,18.94
2019-02-10T22:24:21.316Z,18.92
2019-02-10T22:26:48.590Z,18.90
2019-02-10T22:29:15.848Z,18.89
2019-02-10T22:31:43.387Z,18.88
2019-02-10T22:34:10.610Z,18.88
2019-02-10T22:36:37.855Z,18.88
2019-02-10T22:39:05.226Z,18.88
2019-02-10T22:41:32.504Z,18.90
2019-02-10T22:43:59.799Z,18.88
2019-02-10T22:46:27.209Z,18.88
2019-02-10T22:48:54.426Z,18.89
2019-02-10T22:51:21.636Z,18.85
2019-02-10T22:53:48.845Z,18.86
2019-02-10T22:56:16.216Z,18.81
2019-02-10T22:58:43.396Z,18.84
2019-02-10T23:01:10.626Z,18.84
2019-02-10T23:03:37.953Z,18.85
2019-02-10T23:06:05.144Z,18.86
2019-02-10T23:08:32.327Z,18.84
2019-02-10T23:10:59.532Z,18.87
2019-02-10T23:13:26.866Z,18.86
2019-02-10T23:15:54.095Z,18.79
2019-02-10T23:18:21.375Z,18.78
2019-02-10T23:20:48.615Z,18.77
2019-02-10T23:23:15.786Z,18.77
2019-02-10T23:25:43.006Z,18.74
2019-02-10T23:28:10.347Z,18.74
2019-02-10T23:30:37.585Z,18.78
2019-02-10T23:33:04.799Z,18.75
2019-02-10T23:35:32.114Z,18.74
2019-02-10T23:37:59.384Z,18.76
2019-02-10T23:40:26.578Z,18.76
2019-02-10T23:43:01.692Z,18.72
2019-02-10T23:45:23.031Z,18.70
2019-02-10T23:47:50.318Z,18.72
2019-02-10T23:50:17.572Z,18.72
2019-02-10T23:52:44.887Z,18.72
2019-02-10T23:55:12.094Z,18.74
2019-02-10T23:57:39.292Z,18.78
